createdAt,value
2023-01-22T00:01:09.049Z,-0.02
2023-01-22T00:03:36.824Z,0.06
2023-01-22T00:06:04.131Z,0.04
2023-01-22T00:08:30.797Z,0.04
2023-01-22T00:10:57.860Z,0.05
2023-01-22T00:13:26.588Z,0.10
2023-01-22T00:15:58.023Z,0.12
2023-01-22T00:18:24.858Z,0.10
2023-01-22T00:20:54.616Z,0.23
2023-01-22T00:23:22.791Z,0.07
2023-01-22T00:25:49.771Z,0.15
2023-01-22T00:28:16.917Z,0.11
2023-01-22T00:30:44.031Z,-0.29
2023-01-22T00:33:10.548Z,-0.24
2023-01-22T00:35:37.120Z,-0.29
2023-01-22T00:38:03.767Z,-0.17
2023-01-22T00:40:30.279Z,-0.10
2023-01-22T00:42:56.778Z,-0.07
2023-01-22T00:45:23.245Z,-0.21
2023-01-22T00:47:49.703Z,-0.20
2023-01-22T00:50:16.954Z,-0.24
2023-01-22T00:52:43.535Z,-0.25
2023-01-22T00:55:10.311Z,-0.20
2023-01-22T00:57:36.789Z,-0.22
2023-01-22T01:00:04.156Z,-0.15
2023-01-22T01:02:30.596Z,-0.06
2023-01-22T01:04:57.102Z,-0.06
2023-01-22T01:07:23.945Z,-0.15
2023-01-22T01:09:50.671Z,-0.17
2023-01-22T01:12:17.445Z,-0.03
2023-01-22T01:14:43.975Z,0.05
2023-01-22T01:17:10.409Z,0.08
2023-01-22T01:19:36.860Z,0.11
2023-01-22T01:22:03.351Z,0.14
2023-01-22T01:24:29.834Z,0.22
2023-01-22T01:26:56.323Z,0.25
2023-01-22T01:29:22.827Z,0.14
2023-01-22T01:31:53.161Z,0.09
2023-01-22T01:34:19.782Z,0.16
2023-01-22T01:36:49.396Z,0.13
2023-01-22T01:39:17.280Z,-0.01
2023-01-22T01:41:44.617Z,-0.13
2023-01-22T01:44:17.256Z,-0.05
2023-01-22T01:46:53.999Z,-0.00
2023-01-22T01:49:53.373Z,-0.11
2023-01-22T01:52:20.823Z,-0.02
2023-01-22T01:54:53.037Z,-0.09
2023-01-22T01:57:27.511Z,0.02
2023-01-22T01:59:56.277Z,0.09
2023-01-22T02:02:23.005Z,0.07
2023-01-22T02:04:50.997Z,0.14
2023-01-22T02:07:18.109Z,-0.05
2023-01-22T02:09:44.732Z,0.05
2023-01-22T02:12:11.401Z,0.06
2023-01-22T02:14:43.053Z,0.09
2023-01-22T02:17:14.648Z,0.08
2023-01-22T02:19:44.017Z,0.21
2023-01-22T02:22:22.293Z,0.19
2023-01-22T02:24:50.087Z,0.27
2023-01-22T02:27:16.612Z,0.38
2023-01-22T02:29:43.070Z,0.30
2023-01-22T02:32:09.994Z,0.36
2023-01-22T02:34:36.618Z,0.37
2023-01-22T02:37:03.546Z,0.33
2023-01-22T02:39:30.572Z,0.39
2023-01-22T02:41:58.193Z,0.23
2023-01-22T02:44:24.686Z,-0.00
2023-01-22T02:46:51.226Z,0.11
2023-01-22T02:49:17.737Z,-0.03
2023-01-22T02:51:44.251Z,-0.01
2023-01-22T02:54:10.716Z,0.02
2023-01-22T02:56:37.182Z,0.03
2023-01-22T02:59:04.889Z,0.10
2023-01-22T03:01:32.011Z,0.01
2023-01-22T03:04:10.596Z,0.02
2023-01-22T03:06:43.451Z,0.11
2023-01-22T03:09:12.575Z,0.24
2023-01-22T03:11:41.668Z,0.21
2023-01-22T03:14:27.338Z,-0.06
2023-01-22T03:17:13.499Z,0.11
2023-01-22T03:19:58.772Z,0.24
2023-01-22T03:22:25.397Z,0.11
2023-01-22T03:24:52.933Z,0.06
2023-01-22T03:27:22.900Z,0.08
2023-01-22T03:29:50.135Z,0.33
2023-01-22T03:32:17.085Z,0.24
2023-01-22T03:34:43.662Z,0.42
2023-01-22T03:37:14.235Z,0.28
2023-01-22T03:39:41.109Z,0.19
2023-01-22T03:42:08.343Z,0.32
2023-01-22T03:44:35.032Z,0.29
2023-01-22T03:47:01.829Z,0.22
2023-01-22T03:49:28.475Z,0.28
2023-01-22T03:51:56.680Z,0.15
2023-01-22T03:54:23.198Z,0.06
2023-01-22T03:56:49.637Z,0.00
2023-01-22T03:59:16.161Z,-0.02
2023-01-22T04:01:42.616Z,0.03
2023-01-22T04:04:09.062Z,0.09
2023-01-22T04:06:35.524Z,0.13
2023-01-22T04:09:02.180Z,0.12
2023-01-22T04:11:28.709Z,0.18
2023-01-22T04:13:56.362Z,0.06
2023-01-22T04:16:22.963Z,0.12
2023-01-22T04:18:49.513Z,0.09
2023-01-22T04:21:15.978Z,0.07
2023-01-22T04:23:42.510Z,0.17
2023-01-22T04:26:09.000Z,0.22
2023-01-22T04:28:35.441Z,0.16
2023-01-22T04:31:02.080Z,-0.05
2023-01-22T04:33:28.648Z,0.04
2023-01-22T04:35:55.450Z,-0.13
2023-01-22T04:38:22.382Z,-0.12
2023-01-22T04:40:49.037Z,0.08
2023-01-22T04:43:15.789Z,0.24
2023-01-22T04:45:42.290Z,0.06
2023-01-22T04:48:09.288Z,0.12
2023-01-22T04:50:35.875Z,0.25
2023-01-22T04:53:03.699Z,0.16
2023-01-22T04:55:30.970Z,0.09
2023-01-22T04:58:00.502Z,0.16
2023-01-22T05:00:29.121Z,0.18
2023-01-22T05:02:57.853Z,0.22
2023-01-22T05:05:25.153Z,0.20
2023-01-22T05:07:51.750Z,0.15
2023-01-22T05:10:18.869Z,0.26
2023-01-22T05:12:45.869Z,0.28
2023-01-22T05:15:23.627Z,0.32
2023-01-22T05:17:51.903Z,-0.03
2023-01-22T05:20:18.727Z,-0.06
2023-01-22T05:22:45.397Z,-0.11
2023-01-22T05:25:12.599Z,-0.16
2023-01-22T05:27:39.050Z,-0.09
2023-01-22T05:30:07.303Z,-0.03
2023-01-22T05:32:33.848Z,-0.17
2023-01-22T05:35:00.356Z,-0.11
2023-01-22T05:37:27.069Z,0.02
2023-01-22T05:39:53.568Z,0.05
2023-01-22T05:42:20.939Z,0.07
2023-01-22T05:44:47.528Z,0.13
2023-01-22T05:47:14.914Z,0.21
2023-01-22T05:49:41.529Z,0.25
2023-01-22T05:52:10.694Z,-0.02
2023-01-22T05:54:39.673Z,0.07
2023-01-22T05:57:06.876Z,0.10
2023-01-22T05:59:33.497Z,0.16
2023-01-22T06:02:00.079Z,0.21
2023-01-22T06:04:26.789Z,0.03
2023-01-22T06:06:53.417Z,0.12
2023-01-22T06:09:20.012Z,0.15
2023-01-22T06:11:46.576Z,0.12
2023-01-22T06:14:13.138Z,0.16
2023-01-22T06:16:39.594Z,0.07
2023-01-22T06:19:06.517Z,0.12
2023-01-22T06:21:33.056Z,0.13
2023-01-22T06:23:59.613Z,0.16
2023-01-22T06:26:26.141Z,0.26
2023-01-22T06:28:55.015Z,0.22
2023-01-22T06:31:21.821Z,0.26
2023-01-22T06:33:48.523Z,0.29
2023-01-22T06:36:15.038Z,0.30
2023-01-22T06:38:41.516Z,0.28
2023-01-22T06:41:09.329Z,0.36
2023-01-22T06:43:37.453Z,0.40
2023-01-22T06:46:05.175Z,0.41
2023-01-22T06:48:32.009Z,0.41
2023-01-22T06:51:00.375Z,0.43
2023-01-22T06:53:27.846Z,0.47
2023-01-22T06:55:54.396Z,0.48
2023-01-22T06:58:21.277Z,0.49
2023-01-22T07:00:47.895Z,0.57
2023-01-22T07:03:14.558Z,0.52
2023-01-22T07:05:41.138Z,0.49
2023-01-22T07:08:08.560Z,0.36
2023-01-22T07:10:35.071Z,0.36
2023-01-22T07:13:04.144Z,0.41
2023-01-22T07:15:30.703Z,0.50
2023-01-22T07:17:57.213Z,0.45
2023-01-22T07:20:24.251Z,0.49
2023-01-22T07:22:51.865Z,0.52
2023-01-22T07:25:23.412Z,0.57
2023-01-22T07:27:49.856Z,0.51
2023-01-22T07:30:16.972Z,0.44
2023-01-22T07:32:43.592Z,0.44
2023-01-22T07:35:10.063Z,0.43
2023-01-22T07:37:36.504Z,0.40
2023-01-22T07:40:03.434Z,0.24
2023-01-22T07:42:29.957Z,0.10
2023-01-22T07:44:56.399Z,0.23
2023-01-22T07:47:22.877Z,0.29
2023-01-22T07:49:49.390Z,0.25
2023-01-22T07:52:15.894Z,0.26
2023-01-22T07:54:42.364Z,0.30
2023-01-22T07:57:14.256Z,0.30
2023-01-22T07:59:41.080Z,0.13
2023-01-22T08:02:13.101Z,0.28
2023-01-22T08:04:42.297Z,0.38
2023-01-22T08:07:18.118Z,0.51
2023-01-22T08:09:45.312Z,0.60
2023-01-22T08:12:12.504Z,0.63
2023-01-22T08:14:38.946Z,0.72
2023-01-22T08:17:06.382Z,0.76
2023-01-22T08:19:32.831Z,0.90
2023-01-22T08:21:59.390Z,0.98
2023-01-22T08:24:25.884Z,1.04
2023-01-22T08:26:52.476Z,0.99
2023-01-22T08:29:19.168Z,0.74
2023-01-22T08:31:45.768Z,0.75
2023-01-22T08:34:12.339Z,0.80
2023-01-22T08:36:38.859Z,0.79
2023-01-22T08:39:05.427Z,0.96
2023-01-22T08:41:31.874Z,0.88
2023-01-22T08:43:58.436Z,1.04
2023-01-22T08:46:25.016Z,1.13
2023-01-22T08:48:51.531Z,1.28
2023-01-22T08:51:18.197Z,1.24
2023-01-22T08:53:44.736Z,1.16
2023-01-22T08:56:11.485Z,1.23
2023-01-22T08:58:38.033Z,1.29
2023-01-22T09:01:04.887Z,1.22
2023-01-22T09:03:31.398Z,1.22
2023-01-22T09:05:58.953Z,1.14
2023-01-22T09:08:25.541Z,1.18
2023-01-22T09:10:52.058Z,1.19
2023-01-22T09:13:18.655Z,1.20
2023-01-22T09:15:45.125Z,1.32
2023-01-22T09:18:11.555Z,1.41
2023-01-22T09:20:38.011Z,1.38
2023-01-22T09:23:04.518Z,1.42
2023-01-22T09:25:31.047Z,1.27
2023-01-22T09:28:00.293Z,1.19
2023-01-22T09:30:30.165Z,1.25
2023-01-22T09:32:57.026Z,1.36
2023-01-22T09:35:23.724Z,1.42
2023-01-22T09:37:50.347Z,1.30
2023-01-22T09:40:31.369Z,0.96
2023-01-22T09:43:25.878Z,1.35
2023-01-22T09:45:58.358Z,1.14
2023-01-22T09:48:36.677Z,1.30
2023-01-22T09:51:04.639Z,1.47
2023-01-22T09:53:31.803Z,1.53
2023-01-22T09:55:59.923Z,1.60
2023-01-22T09:58:26.975Z,1.69
2023-01-22T10:01:01.543Z,1.72
2023-01-22T10:04:03.269Z,1.73
2023-01-22T10:06:30.146Z,1.73
2023-01-22T10:09:15.640Z,1.81
2023-01-22T10:11:49.564Z,1.65
2023-01-22T10:14:21.223Z,1.76
2023-01-22T10:16:49.106Z,1.66
2023-01-22T10:19:29.043Z,1.59
2023-01-22T10:22:20.452Z,1.56
2023-01-22T10:24:46.954Z,1.57
2023-01-22T10:27:18.376Z,1.56
2023-01-22T10:29:58.043Z,1.71
2023-01-22T10:32:28.174Z,1.89
2023-01-22T10:35:24.225Z,1.87
2023-01-22T10:37:56.068Z,1.80
2023-01-22T10:40:35.808Z,1.80
2023-01-22T10:43:17.750Z,1.89
2023-01-22T10:45:58.612Z,1.87
2023-01-22T10:48:25.615Z,1.95
2023-01-22T10:51:08.328Z,1.90
2023-01-22T10:53:43.553Z,1.78
2023-01-22T10:56:13.512Z,1.58
2023-01-22T10:58:48.269Z,1.40
2023-01-22T11:01:37.242Z,1.40
2023-01-22T11:04:14.712Z,1.36
2023-01-22T11:06:50.118Z,1.37
2023-01-22T11:09:21.329Z,1.23
2023-01-22T11:12:08.024Z,1.31
2023-01-22T11:14:38.177Z,1.26
2023-01-22T11:17:26.670Z,1.20
2023-01-22T11:20:05.588Z,1.41
2023-01-22T11:22:39.480Z,1.83
2023-01-22T11:25:11.137Z,2.08
2023-01-22T11:28:08.379Z,2.01
2023-01-22T11:30:54.631Z,1.93
2023-01-22T11:33:52.479Z,2.07
2023-01-22T11:36:42.575Z,2.19
2023-01-22T11:39:20.081Z,2.33
2023-01-22T11:42:14.108Z,2.34
2023-01-22T11:45:08.497Z,2.41
2023-01-22T11:48:04.986Z,2.39
2023-01-22T11:50:45.029Z,2.40
2023-01-22T11:53:46.859Z,2.53
2023-01-22T11:56:27.890Z,2.47
2023-01-22T11:59:21.367Z,2.30
2023-01-22T12:02:40.648Z,2.05
2023-01-22T12:05:44.187Z,2.18
2023-01-22T12:08:39.481Z,2.19
2023-01-22T12:11:30.739Z,2.28
2023-01-22T12:15:03.057Z,2.34
2023-01-22T12:17:43.381Z,2.31
2023-01-22T12:20:34.794Z,2.35
2023-01-22T12:23:20.319Z,2.55
2023-01-22T12:26:04.090Z,2.46
2023-01-22T12:28:44.056Z,2.57
2023-01-22T12:31:20.736Z,2.57
2023-01-22T12:33:47.239Z,2.32
2023-01-22T12:36:23.698Z,2.43
2023-01-22T12:39:20.394Z,2.32
2023-01-22T12:42:31.890Z,2.47
2023-01-22T12:45:06.474Z,2.35
2023-01-22T12:47:56.229Z,2.41
2023-01-22T12:50:26.553Z,2.49
2023-01-22T12:53:21.323Z,2.31
2023-01-22T12:56:00.327Z,2.34
2023-01-22T12:58:31.017Z,2.35
2023-01-22T13:01:10.033Z,2.32
2023-01-22T13:03:39.312Z,2.43
2023-01-22T13:06:29.437Z,2.51
2023-01-22T13:08:55.908Z,2.52
2023-01-22T13:11:35.608Z,2.51
2023-01-22T13:14:18.800Z,2.35
2023-01-22T13:17:04.062Z,2.30
2023-01-22T13:19:42.016Z,2.42
2023-01-22T13:22:19.025Z,2.52
2023-01-22T13:24:59.582Z,2.59
2023-01-22T13:27:35.142Z,2.34
2023-01-22T13:30:21.373Z,2.24
2023-01-22T13:32:48.299Z,2.33
2023-01-22T13:35:18.334Z,2.23
2023-01-22T13:37:51.435Z,2.27
2023-01-22T13:40:29.287Z,2.16
2023-01-22T13:43:00.095Z,2.12
2023-01-22T13:45:31.325Z,2.10
2023-01-22T13:48:03.878Z,2.04
2023-01-22T13:50:32.315Z,2.01
2023-01-22T13:53:02.095Z,2.00
2023-01-22T13:55:30.798Z,2.05
2023-01-22T13:58:01.613Z,2.18
2023-01-22T14:00:34.959Z,2.24
2023-01-22T14:03:03.029Z,2.28
2023-01-22T14:05:35.109Z,2.26
2023-01-22T14:08:19.541Z,2.13
2023-01-22T14:10:57.488Z,2.36
2023-01-22T14:13:24.253Z,2.21
2023-01-22T14:16:01.497Z,2.15
2023-01-22T14:18:31.080Z,2.20
2023-01-22T14:20:57.552Z,2.06
2023-01-22T14:23:24.043Z,2.12
2023-01-22T14:25:54.551Z,2.17
2023-01-22T14:28:23.077Z,2.15
2023-01-22T14:30:50.022Z,2.11
2023-01-22T14:33:24.331Z,2.05
2023-01-22T14:35:53.159Z,2.12
2023-01-22T14:38:20.231Z,2.14
2023-01-22T14:40:47.076Z,2.10
2023-01-22T14:43:13.705Z,2.10
2023-01-22T14:45:43.634Z,1.96
2023-01-22T14:48:16.180Z,1.97
2023-01-22T14:50:43.117Z,1.99
2023-01-22T14:53:10.996Z,1.95
2023-01-22T14:55:37.660Z,1.86
2023-01-22T14:58:05.985Z,1.70
2023-01-22T15:00:32.467Z,1.77
2023-01-22T15:03:00.353Z,1.82
2023-01-22T15:05:28.090Z,1.87
2023-01-22T15:07:54.703Z,1.84
2023-01-22T15:10:23.017Z,1.86
2023-01-22T15:12:52.550Z,1.81
2023-01-22T15:15:26.927Z,1.67
2023-01-22T15:17:55.303Z,1.71
2023-01-22T15:20:21.938Z,1.70
2023-01-22T15:22:49.753Z,1.73
2023-01-22T15:25:17.324Z,1.73
2023-01-22T15:27:44.646Z,1.65
2023-01-22T15:30:13.522Z,1.64
2023-01-22T15:32:40.386Z,1.61
2023-01-22T15:35:07.255Z,1.61
2023-01-22T15:37:33.778Z,1.66
2023-01-22T15:40:00.235Z,1.52
2023-01-22T15:42:26.717Z,1.24
2023-01-22T15:44:53.210Z,1.33
2023-01-22T15:47:19.711Z,1.43
2023-01-22T15:49:46.263Z,1.46
2023-01-22T15:52:12.823Z,1.81
2023-01-22T15:54:39.279Z,1.53
2023-01-22T15:57:05.767Z,1.38
2023-01-22T15:59:33.137Z,1.29
2023-01-22T16:01:59.754Z,1.29
2023-01-22T16:04:26.255Z,1.28
2023-01-22T16:06:52.855Z,1.33
2023-01-22T16:09:19.431Z,1.31
2023-01-22T16:11:45.995Z,1.31
2023-01-22T16:14:12.566Z,1.15
2023-01-22T16:16:39.192Z,1.22
2023-01-22T16:19:08.356Z,1.36
2023-01-22T16:21:35.584Z,1.15
2023-01-22T16:24:03.314Z,1.32
2023-01-22T16:26:34.432Z,1.26
2023-01-22T16:29:03.358Z,1.23
2023-01-22T16:31:33.358Z,1.25
2023-01-22T16:34:11.596Z,1.28
2023-01-22T16:36:38.635Z,1.39
2023-01-22T16:39:06.291Z,1.36
2023-01-22T16:41:35.506Z,1.44
2023-01-22T16:44:07.869Z,1.40
2023-01-22T16:46:41.675Z,1.12
2023-01-22T16:49:26.644Z,1.18
2023-01-22T16:51:57.522Z,1.08
2023-01-22T16:54:35.891Z,1.09
2023-01-22T16:57:06.771Z,1.14
2023-01-22T16:59:37.043Z,1.23
2023-01-22T17:02:13.695Z,1.31
2023-01-22T17:04:40.558Z,1.33
2023-01-22T17:07:07.037Z,1.39
2023-01-22T17:09:35.724Z,1.40
2023-01-22T17:12:05.552Z,1.39
2023-01-22T17:14:36.934Z,1.33
2023-01-22T17:17:06.339Z,1.38
2023-01-22T17:19:33.803Z,1.42
2023-01-22T17:22:01.650Z,1.41
2023-01-22T17:24:30.647Z,1.23
2023-01-22T17:26:58.446Z,1.20
2023-01-22T17:29:26.476Z,1.24
2023-01-22T17:31:53.475Z,1.27
2023-01-22T17:34:20.056Z,1.32
2023-01-22T17:36:46.710Z,1.33
2023-01-22T17:39:17.725Z,1.33
2023-01-22T17:41:44.859Z,1.37
2023-01-22T17:44:12.509Z,1.36
2023-01-22T17:46:39.738Z,1.32
2023-01-22T17:49:06.476Z,1.24
2023-01-22T17:51:35.021Z,1.31
2023-01-22T17:54:03.814Z,1.26
2023-01-22T17:56:37.017Z,1.32
2023-01-22T17:59:06.683Z,1.24
2023-01-22T18:01:36.622Z,1.31
2023-01-22T18:04:07.605Z,1.34
2023-01-22T18:06:35.952Z,1.36
2023-01-22T18:09:05.111Z,1.26
2023-01-22T18:11:32.980Z,1.27
2023-01-22T18:14:07.287Z,1.30
2023-01-22T18:16:38.543Z,1.26
2023-01-22T18:19:07.231Z,1.37
2023-01-22T18:21:36.019Z,1.37
2023-01-22T18:24:05.126Z,1.25
2023-01-22T18:26:32.173Z,1.28
2023-01-22T18:28:59.478Z,1.32
2023-01-22T18:31:28.856Z,1.26
2023-01-22T18:34:02.254Z,1.09
2023-01-22T18:36:34.628Z,1.00
2023-01-22T18:39:08.547Z,1.10
2023-01-22T18:41:36.452Z,1.22
2023-01-22T18:44:03.769Z,1.23
2023-01-22T18:46:34.021Z,1.25
2023-01-22T18:49:10.404Z,1.33
2023-01-22T18:51:36.961Z,1.36
2023-01-22T18:54:05.189Z,1.56
2023-01-22T18:56:31.884Z,1.55
2023-01-22T18:58:58.944Z,1.65
2023-01-22T19:01:33.414Z,1.66
2023-01-22T19:04:04.465Z,1.34
2023-01-22T19:06:36.795Z,1.38
2023-01-22T19:09:13.914Z,1.43
2023-01-22T19:11:42.994Z,1.05
2023-01-22T19:14:13.969Z,1.26
2023-01-22T19:16:42.901Z,1.30
2023-01-22T19:19:13.397Z,1.38
2023-01-22T19:21:47.185Z,1.41
2023-01-22T19:24:17.163Z,1.49
2023-01-22T19:26:46.460Z,1.57
2023-01-22T19:29:17.415Z,1.47
2023-01-22T19:31:50.579Z,1.46
2023-01-22T19:34:23.238Z,1.51
2023-01-22T19:36:56.629Z,1.55
2023-01-22T19:39:27.648Z,1.63
2023-01-22T19:41:55.037Z,1.59
2023-01-22T19:44:21.653Z,1.40
2023-01-22T19:46:48.528Z,1.46
2023-01-22T19:49:15.585Z,1.59
2023-01-22T19:51:42.199Z,1.58
2023-01-22T19:54:10.063Z,1.65
2023-01-22T19:56:38.851Z,1.70
2023-01-22T19:59:16.132Z,1.65
2023-01-22T20:01:48.400Z,1.51
2023-01-22T20:04:25.489Z,1.41
2023-01-22T20:07:05.744Z,1.44
2023-01-22T20:09:34.992Z,1.51
2023-01-22T20:12:02.667Z,1.56
2023-01-22T20:14:32.283Z,1.54
2023-01-22T20:17:01.166Z,1.49
2023-01-22T20:19:29.697Z,1.38
2023-01-22T20:21:56.511Z,1.30
2023-01-22T20:24:23.077Z,1.42
2023-01-22T20:26:52.813Z,1.57
2023-01-22T20:29:19.325Z,1.46
2023-01-22T20:31:46.094Z,1.39
2023-01-22T20:34:15.009Z,1.50
2023-01-22T20:36:41.573Z,1.53
2023-01-22T20:39:08.074Z,1.50
2023-01-22T20:41:34.567Z,1.33
2023-01-22T20:44:01.040Z,1.34
2023-01-22T20:46:27.689Z,1.46
2023-01-22T20:48:58.154Z,1.35
2023-01-22T20:51:28.722Z,1.28
2023-01-22T20:53:56.916Z,1.22
2023-01-22T20:56:30.093Z,1.10
2023-01-22T20:58:59.370Z,1.03
2023-01-22T21:01:26.808Z,1.08
2023-01-22T21:03:56.971Z,1.24
2023-01-22T21:06:25.848Z,1.40
2023-01-22T21:08:56.264Z,1.30
2023-01-22T21:11:24.501Z,1.14
2023-01-22T21:13:53.136Z,1.04
2023-01-22T21:16:26.289Z,1.06
2023-01-22T21:19:00.415Z,1.17
2023-01-22T21:21:29.012Z,1.24
2023-01-22T21:23:56.516Z,1.09
2023-01-22T21:26:26.700Z,1.04
2023-01-22T21:28:57.391Z,1.14
2023-01-22T21:31:25.521Z,1.24
2023-01-22T21:34:02.117Z,1.26
2023-01-22T21:36:40.634Z,1.21
2023-01-22T21:39:12.891Z,1.30
2023-01-22T21:41:41.638Z,1.16
2023-01-22T21:44:38.112Z,1.10
2023-01-22T21:47:05.258Z,1.16
2023-01-22T21:49:34.712Z,1.23
2023-01-22T21:52:05.619Z,1.16
2023-01-22T21:54:38.857Z,1.15
2023-01-22T21:57:07.750Z,1.16
2023-01-22T21:59:36.797Z,1.30
2023-01-22T22:02:05.845Z,1.37
2023-01-22T22:04:32.925Z,1.43
2023-01-22T22:06:59.549Z,1.38
2023-01-22T22:09:28.733Z,1.38
2023-01-22T22:12:02.552Z,1.33
2023-01-22T22:14:29.886Z,1.36
2023-01-22T22:16:56.980Z,1.25
2023-01-22T22:19:25.062Z,1.12
2023-01-22T22:21:51.876Z,1.07
2023-01-22T22:24:19.893Z,1.08
2023-01-22T22:26:46.833Z,1.15
2023-01-22T22:29:13.454Z,1.13
2023-01-22T22:31:40.133Z,1.18
2023-01-22T22:34:06.849Z,1.30
2023-01-22T22:36:35.177Z,1.38
2023-01-22T22:39:02.671Z,1.42
2023-01-22T22:41:33.073Z,1.32
2023-01-22T22:44:00.151Z,1.22
2023-01-22T22:46:34.222Z,1.29
2023-01-22T22:49:02.751Z,1.32
2023-01-22T22:51:34.162Z,1.27
2023-01-22T22:54:05.261Z,1.30
2023-01-22T22:56:32.232Z,1.35
2023-01-22T22:59:01.014Z,1.46
2023-01-22T23:01:30.136Z,1.48
2023-01-22T23:03:56.864Z,1.59
2023-01-22T23:06:30.469Z,1.57
2023-01-22T23:08:59.157Z,1.62
2023-01-22T23:11:36.465Z,1.60
2023-01-22T23:14:04.457Z,1.59
2023-01-22T23:16:38.599Z,1.64
2023-01-22T23:19:28.995Z,1.63
2023-01-22T23:21:59.016Z,1.62
2023-01-22T23:24:27.572Z,1.54
2023-01-22T23:26:54.367Z,1.47
2023-01-22T23:29:24.252Z,1.46
2023-01-22T23:31:51.217Z,1.43
2023-01-22T23:34:21.662Z,1.34
2023-01-22T23:36:50.109Z,1.47
2023-01-22T23:39:19.865Z,1.55
2023-01-22T23:41:46.541Z,1.49
2023-01-22T23:44:13.211Z,1.57
2023-01-22T23:46:40.542Z,1.55
2023-01-22T23:49:07.063Z,1.38
2023-01-22T23:51:33.630Z,1.37
2023-01-22T23:54:00.195Z,1.38
2023-01-22T23:56:31.997Z,1.38
2023-01-22T23:58:59.224Z,1.42
